sensor_id;sensor_type;location;lat;lon;timestamp;pressure;altitude;pressure_sealevel;temperature;humidity
62201;BME280;48197;42.732;27.192;2022-07-09T00:00:06;99210.25;;;21.48;54.23
62201;BME280;48197;42.732;27.192;2022-07-09T00:02:33;99210.53;;;21.50;54.22
62201;BME280;48197;42.732;27.192;2022-07-09T00:05:00;99204.97;;;21.55;53.71
62201;BME280;48197;42.732;27.192;2022-07-09T00:07:27;99201.94;;;21.59;53.79
62201;BME280;48197;42.732;27.192;2022-07-09T00:09:52;99207.44;;;21.68;53.40
62201;BME280;48197;42.732;27.192;2022-07-09T00:12:19;99206.50;;;21.77;53.12
62201;BME280;48197;42.732;27.192;2022-07-09T00:14:46;99206.50;;;21.77;53.19
62201;BME280;48197;42.732;27.192;2022-07-09T00:17:13;99206.44;;;21.71;53.48
62201;BME280;48197;42.732;27.192;2022-07-09T00:19:39;99205.88;;;21.67;53.22
62201;BME280;48197;42.732;27.192;2022-07-09T00:22:21;99210.16;;;21.63;53.47
62201;BME280;48197;42.732;27.192;2022-07-09T00:24:48;99201.53;;;21.66;53.37
62201;BME280;48197;42.732;27.192;2022-07-09T00:27:14;99206.34;;;21.66;53.30
62201;BME280;48197;42.732;27.192;2022-07-09T00:29:41;99206.34;;;21.66;53.16
62201;BME280;48197;42.732;27.192;2022-07-09T00:32:07;99198.16;;;21.62;53.64
62201;BME280;48197;42.732;27.192;2022-07-09T00:34:34;99200.97;;;21.62;53.46
62201;BME280;48197;42.732;27.192;2022-07-09T00:37:14;99195.81;;;21.60;53.29
62201;BME280;48197;42.732;27.192;2022-07-09T00:39:41;99196.59;;;21.61;53.06
62201;BME280;48197;42.732;27.192;2022-07-09T00:42:09;99199.13;;;21.59;53.26
62201;BME280;48197;42.732;27.192;2022-07-09T00:44:36;99197.09;;;21.59;53.07
62201;BME280;48197;42.732;27.192;2022-07-09T00:47:06;99201.16;;;21.58;53.28
62201;BME280;48197;42.732;27.192;2022-07-09T00:49:37;99194.22;;;21.54;53.36
62201;BME280;48197;42.732;27.192;2022-07-09T00:52:06;99196.75;;;21.52;53.31
62201;BME280;48197;42.732;27.192;2022-07-09T00:54:34;99200.75;;;21.45;53.81
62201;BME280;48197;42.732;27.192;2022-07-09T00:57:01;99202.13;;;21.35;53.98
62201;BME280;48197;42.732;27.192;2022-07-09T00:59:30;99198.97;;;21.27;54.24
62201;BME280;48197;42.732;27.192;2022-07-09T01:01:56;99202.00;;;21.24;54.46
62201;BME280;48197;42.732;27.192;2022-07-09T01:04:23;99196.66;;;21.26;54.51
62201;BME280;48197;42.732;27.192;2022-07-09T01:06:49;99199.25;;;21.29;54.41
62201;BME280;48197;42.732;27.192;2022-07-09T01:09:16;99199.03;;;21.33;54.55
62201;BME280;48197;42.732;27.192;2022-07-09T01:11:43;99197.00;;;21.33;54.40
62201;BME280;48197;42.732;27.192;2022-07-09T01:14:09;99196.03;;;21.36;54.50
62201;BME280;48197;42.732;27.192;2022-07-09T01:16:36;99188.34;;;21.37;54.34
62201;BME280;48197;42.732;27.192;2022-07-09T01:19:06;99193.22;;;21.36;54.47
62201;BME280;48197;42.732;27.192;2022-07-09T01:21:34;99193.97;;;21.37;54.15
62201;BME280;48197;42.732;27.192;2022-07-09T01:24:05;99190.41;;;21.36;54.25
62201;BME280;48197;42.732;27.192;2022-07-09T01:26:31;99188.56;;;21.33;54.27
62201;BME280;48197;42.732;27.192;2022-07-09T01:28:58;99189.56;;;21.30;54.21
62201;BME280;48197;42.732;27.192;2022-07-09T01:31:24;99186.75;;;21.30;54.19
62201;BME280;48197;42.732;27.192;2022-07-09T01:33:51;99189.06;;;21.32;54.32
62201;BME280;48197;42.732;27.192;2022-07-09T01:36:17;99179.66;;;21.35;54.00
62201;BME280;48197;42.732;27.192;2022-07-09T01:38:45;99182.25;;;21.38;53.81
62201;BME280;48197;42.732;27.192;2022-07-09T01:41:12;99182.25;;;21.38;53.74
62201;BME280;48197;42.732;27.192;2022-07-09T01:43:39;99182.44;;;21.35;53.88
62201;BME280;48197;42.732;27.192;2022-07-09T01:46:05;99185.75;;;21.33;53.68
62201;BME280;48197;42.732;27.192;2022-07-09T10:31:53;99094.66;;;29.32;38.17
62201;BME280;48197;42.732;27.192;2022-07-09T10:37:01;99108.00;;;29.37;38.44
62201;BME280;48197;42.732;27.192;2022-07-09T10:52:01;99101.75;;;28.00;39.39
62201;BME280;48197;42.732;27.192;2022-07-09T10:54:28;99109.59;;;27.56;38.86
62201;BME280;48197;42.732;27.192;2022-07-09T10:56:56;99103.84;;;28.13;39.91
62201;BME280;48197;42.732;27.192;2022-07-09T10:59:22;99105.72;;;29.22;38.29
62201;BME280;48197;42.732;27.192;2022-07-09T11:01:51;99096.72;;;29.31;37.16
62201;BME280;48197;42.732;27.192;2022-07-09T11:04:31;99102.75;;;29.01;37.33
62201;BME280;48197;42.732;27.192;2022-07-09T11:06:59;99097.22;;;29.57;36.64
62201;BME280;48197;42.732;27.192;2022-07-09T11:09:26;99098.47;;;29.82;36.84
62201;BME280;48197;42.732;27.192;2022-07-09T11:11:56;99105.72;;;30.04;36.48
62201;BME280;48197;42.732;27.192;2022-07-09T11:14:24;99086.34;;;29.68;36.72
62201;BME280;48197;42.732;27.192;2022-07-09T11:16:59;99098.47;;;29.08;35.76
62201;BME280;48197;42.732;27.192;2022-07-09T11:19:38;99090.31;;;29.18;36.86
62201;BME280;48197;42.732;27.192;2022-07-09T11:22:07;99090.56;;;30.09;35.43
62201;BME280;48197;42.732;27.192;2022-07-09T11:24:44;99091.34;;;30.31;34.65
62201;BME280;48197;42.732;27.192;2022-07-09T11:27:15;99088.56;;;30.96;33.42
62201;BME280;48197;42.732;27.192;2022-07-09T11:54:31;99084.34;;;29.98;35.64
62201;BME280;48197;42.732;27.192;2022-07-09T11:56:59;99093.22;;;30.57;34.22
62201;BME280;48197;42.732;27.192;2022-07-09T11:59:29;99070.31;;;30.99;33.80
62201;BME280;48197;42.732;27.192;2022-07-09T12:05:04;99071.81;;;30.92;33.53
62201;BME280;48197;42.732;27.192;2022-07-09T12:07:31;99068.03;;;30.19;34.30
62201;BME280;48197;42.732;27.192;2022-07-09T12:10:01;99060.19;;;29.57;35.34
62201;BME280;48197;42.732;27.192;2022-07-09T12:12:33;99072.88;;;29.08;36.53
62201;BME280;48197;42.732;27.192;2022-07-09T12:15:02;99070.63;;;28.66;36.62
62201;BME280;48197;42.732;27.192;2022-07-09T12:20:37;99063.28;;;28.44;36.71
62201;BME280;48197;42.732;27.192;2022-07-09T12:25:53;99060.56;;;28.52;36.96
62201;BME280;48197;42.732;27.192;2022-07-09T12:28:33;99053.50;;;28.40;37.43
62201;BME280;48197;42.732;27.192;2022-07-09T12:30:58;99051.56;;;28.48;36.88
62201;BME280;48197;42.732;27.192;2022-07-09T12:33:31;99049.16;;;28.39;36.95
62201;BME280;48197;42.732;27.192;2022-07-09T12:36:05;99056.47;;;28.47;37.41
62201;BME280;48197;42.732;27.192;2022-07-09T12:38:32;99054.88;;;28.65;37.81
62201;BME280;48197;42.732;27.192;2022-07-09T12:40:59;99044.38;;;28.74;37.58
62201;BME280;48197;42.732;27.192;2022-07-09T12:43:26;99045.13;;;28.61;36.00
62201;BME280;48197;42.732;27.192;2022-07-09T12:45:52;99045.81;;;28.67;36.36
62201;BME280;48197;42.732;27.192;2022-07-09T12:48:24;99040.03;;;29.89;35.68
62201;BME280;48197;42.732;27.192;2022-07-09T12:50:51;99039.34;;;31.63;33.41
62201;BME280;48197;42.732;27.192;2022-07-09T12:53:24;99019.91;;;31.53;32.59
62201;BME280;48197;42.732;27.192;2022-07-09T12:55:56;99029.13;;;30.79;32.14
62201;BME280;48197;42.732;27.192;2022-07-09T13:10:35;99023.31;;;29.30;35.50
62201;BME280;48197;42.732;27.192;2022-07-09T13:25:17;99012.50;;;29.02;36.29
62201;BME280;48197;42.732;27.192;2022-07-09T13:27:49;99002.81;;;29.31;36.01
62201;BME280;48197;42.732;27.192;2022-07-09T13:33:02;99005.31;;;28.47;36.20
62201;BME280;48197;42.732;27.192;2022-07-09T13:35:29;99006.66;;;28.73;36.22
62201;BME280;48197;42.732;27.192;2022-07-09T13:37:55;99015.28;;;28.67;36.44
62201;BME280;48197;42.732;27.192;2022-07-09T13:40:22;99006.53;;;28.39;36.56
62201;BME280;48197;42.732;27.192;2022-07-09T13:42:49;99010.22;;;28.07;36.67
62201;BME280;48197;42.732;27.192;2022-07-09T13:45:16;99014.66;;;27.89;37.15
62201;BME280;48197;42.732;27.192;2022-07-09T13:47:43;99013.88;;;27.88;37.34
62201;BME280;48197;42.732;27.192;2022-07-09T13:50:09;99013.81;;;28.07;38.16
62201;BME280;48197;42.732;27.192;2022-07-09T13:52:36;99003.25;;;28.35;37.72
62201;BME280;48197;42.732;27.192;2022-07-09T13:57:59;99008.41;;;31.30;33.34
62201;BME280;48197;42.732;27.192;2022-07-09T14:00:25;99005.44;;;31.44;32.62
62201;BME280;48197;42.732;27.192;2022-07-09T14:02:52;98999.59;;;31.05;32.11
62201;BME280;48197;42.732;27.192;2022-07-09T14:05:21;99004.91;;;30.36;33.80
62201;BME280;48197;42.732;27.192;2022-07-09T14:07:48;99010.78;;;29.88;34.96
62201;BME280;48197;42.732;27.192;2022-07-09T14:13:29;99010.38;;;30.05;33.80
62201;BME280;48197;42.732;27.192;2022-07-09T14:15:59;99018.16;;;29.28;35.07
62201;BME280;48197;42.732;27.192;2022-07-09T14:18:26;99005.66;;;29.31;35.00
62201;BME280;48197;42.732;27.192;2022-07-09T14:33:14;98997.69;;;28.69;35.85
62201;BME280;48197;42.732;27.192;2022-07-09T14:35:57;98995.28;;;28.46;36.54
62201;BME280;48197;42.732;27.192;2022-07-09T14:38:24;98991.88;;;28.35;37.06
62201;BME280;48197;42.732;27.192;2022-07-09T14:40:50;98990.56;;;28.36;36.55
62201;BME280;48197;42.732;27.192;2022-07-09T14:43:18;98980.22;;;28.52;36.08
62201;BME280;48197;42.732;27.192;2022-07-09T14:45:55;98985.88;;;28.65;35.99
62201;BME280;48197;42.732;27.192;2022-07-09T14:48:22;98986.00;;;28.73;35.69
62201;BME280;48197;42.732;27.192;2022-07-09T14:53:42;98997.00;;;28.89;35.45
62201;BME280;48197;42.732;27.192;2022-07-09T14:59:25;98989.88;;;28.96;35.32
62201;BME280;48197;42.732;27.192;2022-07-09T15:01:51;98988.69;;;28.91;35.68
62201;BME280;48197;42.732;27.192;2022-07-09T15:04:18;98993.53;;;28.83;35.10
62201;BME280;48197;42.732;27.192;2022-07-09T15:06:45;98998.81;;;28.66;35.62
62201;BME280;48197;42.732;27.192;2022-07-09T15:09:19;98997.13;;;28.44;35.72
62201;BME280;48197;42.732;27.192;2022-07-09T15:11:47;98996.91;;;28.42;36.50
62201;BME280;48197;42.732;27.192;2022-07-09T15:14:20;98993.75;;;28.19;36.47
62201;BME280;48197;42.732;27.192;2022-07-09T15:16:47;98999.59;;;28.07;37.17
62201;BME280;48197;42.732;27.192;2022-07-09T15:31:50;98989.97;;;27.33;38.00
62201;BME280;48197;42.732;27.192;2022-07-09T15:34:21;98991.41;;;27.20;37.64
62201;BME280;48197;42.732;27.192;2022-07-09T15:36:53;98983.53;;;27.13;38.21
62201;BME280;48197;42.732;27.192;2022-07-09T15:39:20;98990.28;;;27.10;37.90
62201;BME280;48197;42.732;27.192;2022-07-09T15:41:53;98983.13;;;27.03;37.87
62201;BME280;48197;42.732;27.192;2022-07-09T15:44:22;98983.75;;;26.96;37.83
62201;BME280;48197;42.732;27.192;2022-07-09T15:46:49;98986.38;;;26.94;38.05
62201;BME280;48197;42.732;27.192;2022-07-09T15:49:16;98988.44;;;26.94;38.11
62201;BME280;48197;42.732;27.192;2022-07-09T15:51:41;98993.13;;;26.91;38.32
62201;BME280;48197;42.732;27.192;2022-07-09T15:57:15;98993.47;;;26.82;38.60
62201;BME280;48197;42.732;27.192;2022-07-09T15:59:42;99008.50;;;26.77;38.21
62201;BME280;48197;42.732;27.192;2022-07-09T16:02:11;99006.75;;;26.74;38.36
62201;BME280;48197;42.732;27.192;2022-07-09T16:04:38;99006.50;;;26.72;37.93
62201;BME280;48197;42.732;27.192;2022-07-09T16:07:05;99014.00;;;26.69;38.46
62201;BME280;48197;42.732;27.192;2022-07-09T16:09:31;99017.38;;;26.67;38.50
62201;BME280;48197;42.732;27.192;2022-07-09T16:11:59;99028.78;;;26.62;38.88
62201;BME280;48197;42.732;27.192;2022-07-09T16:14:45;99038.91;;;26.52;39.99
62201;BME280;48197;42.732;27.192;2022-07-09T16:29:25;99056.88;;;24.58;50.84
62201;BME280;48197;42.732;27.192;2022-07-09T16:31:51;99049.97;;;24.31;51.82
62201;BME280;48197;42.732;27.192;2022-07-09T16:40:17;99063.59;;;23.76;53.99
62201;BME280;48197;42.732;27.192;2022-07-09T16:42:44;99054.59;;;23.60;54.85
62201;BME280;48197;42.732;27.192;2022-07-09T16:48:16;99066.56;;;23.27;56.06
62201;BME280;48197;42.732;27.192;2022-07-09T16:50:42;99063.47;;;23.19;56.11
62201;BME280;48197;42.732;27.192;2022-07-09T16:53:08;99067.53;;;23.13;56.66
62201;BME280;48197;42.732;27.192;2022-07-09T16:55:35;99059.56;;;23.06;57.21
62201;BME280;48197;42.732;27.192;2022-07-09T16:58:03;99057.97;;;22.99;57.14
62201;BME280;48197;42.732;27.192;2022-07-09T17:00:31;99068.50;;;22.98;57.19
62201;BME280;48197;42.732;27.192;2022-07-09T17:02:59;99067.19;;;22.99;57.15
62201;BME280;48197;42.732;27.192;2022-07-09T17:05:26;99065.16;;;23.00;57.56
62201;BME280;48197;42.732;27.192;2022-07-09T17:07:53;99070.56;;;23.03;57.63
62201;BME280;48197;42.732;27.192;2022-07-09T17:10:45;99068.53;;;23.04;57.42
62201;BME280;48197;42.732;27.192;2022-07-09T17:13:29;99074.13;;;22.98;57.68
62201;BME280;48197;42.732;27.192;2022-07-09T17:15:57;99074.09;;;22.93;58.24
62201;BME280;48197;42.732;27.192;2022-07-09T17:18:22;99080.22;;;22.86;58.49
62201;BME280;48197;42.732;27.192;2022-07-09T17:20:53;99082.22;;;22.79;58.59
62201;BME280;48197;42.732;27.192;2022-07-09T17:23:20;99085.00;;;22.74;59.06
62201;BME280;48197;42.732;27.192;2022-07-09T17:25:47;99085.75;;;22.69;59.35
62201;BME280;48197;42.732;27.192;2022-07-09T17:28:14;99089.84;;;22.68;59.35
62201;BME280;48197;42.732;27.192;2022-07-09T17:30:40;99089.28;;;22.63;59.79
62201;BME280;48197;42.732;27.192;2022-07-09T17:33:07;99091.09;;;22.61;59.59
62201;BME280;48197;42.732;27.192;2022-07-09T17:35:33;99098.75;;;22.60;59.90
62201;BME280;48197;42.732;27.192;2022-07-09T17:37:59;99099.00;;;22.57;60.06
62201;BME280;48197;42.732;27.192;2022-07-09T17:40:26;99101.53;;;22.55;60.29
62201;BME280;48197;42.732;27.192;2022-07-09T17:42:53;99105.09;;;22.50;60.59
62201;BME280;48197;42.732;27.192;2022-07-09T17:45:19;99108.38;;;22.42;60.99
62201;BME280;48197;42.732;27.192;2022-07-09T17:47:46;99105.53;;;22.37;61.55
62201;BME280;48197;42.732;27.192;2022-07-09T17:50:12;99105.72;;;22.28;61.80
62201;BME280;48197;42.732;27.192;2022-07-09T17:52:39;99100.50;;;22.20;62.40
62201;BME280;48197;42.732;27.192;2022-07-09T17:55:06;99101.72;;;22.14;62.66
62201;BME280;48197;42.732;27.192;2022-07-09T17:57:54;99106.53;;;22.08;63.17
62201;BME280;48197;42.732;27.192;2022-07-09T18:00:26;99104.22;;;22.06;62.96
62201;BME280;48197;42.732;27.192;2022-07-09T18:02:53;99111.94;;;22.11;62.61
62201;BME280;48197;42.732;27.192;2022-07-09T18:05:18;99109.97;;;22.17;62.21
62201;BME280;48197;42.732;27.192;2022-07-09T18:07:56;99110.94;;;22.14;62.32
62201;BME280;48197;42.732;27.192;2022-07-09T18:10:24;99122.16;;;22.09;62.66
62201;BME280;48197;42.732;27.192;2022-07-09T18:12:50;99124.66;;;22.01;62.77
62201;BME280;48197;42.732;27.192;2022-07-09T18:15:17;99126.63;;;21.95;63.10
62201;BME280;48197;42.732;27.192;2022-07-09T18:17:43;99129.44;;;21.95;62.76
62201;BME280;48197;42.732;27.192;2022-07-09T18:20:10;99120.72;;;21.93;63.01
62201;BME280;48197;42.732;27.192;2022-07-09T18:22:37;99119.63;;;21.85;63.22
62201;BME280;48197;42.732;27.192;2022-07-09T18:25:04;99125.72;;;21.77;63.23
62201;BME280;48197;42.732;27.192;2022-07-09T18:27:32;99132.63;;;21.76;62.81
62201;BME280;48197;42.732;27.192;2022-07-09T18:33:02;99122.44;;;21.85;61.58
62201;BME280;48197;42.732;27.192;2022-07-09T18:35:29;99123.38;;;22.02;60.04
62201;BME280;48197;42.732;27.192;2022-07-09T18:38:05;99118.22;;;22.27;58.99
62201;BME280;48197;42.732;27.192;2022-07-09T18:40:34;99121.75;;;22.21;59.20
62201;BME280;48197;42.732;27.192;2022-07-09T18:43:01;99108.66;;;22.13;59.32
62201;BME280;48197;42.732;27.192;2022-07-09T18:45:28;99111.72;;;22.15;58.64
62201;BME280;48197;42.732;27.192;2022-07-09T18:47:55;99112.88;;;22.29;57.70
62201;BME280;48197;42.732;27.192;2022-07-09T18:50:22;99117.28;;;22.35;57.31
62201;BME280;48197;42.732;27.192;2022-07-09T18:52:49;99119.09;;;22.38;57.04
62201;BME280;48197;42.732;27.192;2022-07-09T18:55:15;99110.94;;;22.40;57.11
62201;BME280;48197;42.732;27.192;2022-07-09T18:57:42;99126.22;;;22.34;57.17
62201;BME280;48197;42.732;27.192;2022-07-09T19:00:09;99121.28;;;22.23;57.45
62201;BME280;48197;42.732;27.192;2022-07-09T19:02:39;99127.22;;;22.31;56.74
62201;BME280;48197;42.732;27.192;2022-07-09T19:05:14;99124.22;;;22.40;56.64
62201;BME280;48197;42.732;27.192;2022-07-09T19:07:40;99140.16;;;22.49;56.06
62201;BME280;48197;42.732;27.192;2022-07-09T19:10:07;99131.69;;;22.49;55.76
62201;BME280;48197;42.732;27.192;2022-07-09T19:12:34;99124.50;;;22.42;56.25
62201;BME280;48197;42.732;27.192;2022-07-09T19:15:02;99133.44;;;22.40;55.89
62201;BME280;48197;42.732;27.192;2022-07-09T19:17:28;99129.13;;;22.45;55.61
62201;BME280;48197;42.732;27.192;2022-07-09T19:19:55;99137.06;;;22.47;55.21
62201;BME280;48197;42.732;27.192;2022-07-09T19:22:21;99131.75;;;22.54;54.81
62201;BME280;48197;42.732;27.192;2022-07-09T19:24:48;99137.91;;;22.58;54.80
62201;BME280;48197;42.732;27.192;2022-07-09T19:27:13;99136.63;;;22.54;54.52
62201;BME280;48197;42.732;27.192;2022-07-09T19:29:40;99141.69;;;22.50;54.88
62201;BME280;48197;42.732;27.192;2022-07-09T19:32:06;99131.19;;;22.50;54.78
62201;BME280;48197;42.732;27.192;2022-07-09T19:34:51;99129.13;;;22.45;54.87
62201;BME280;48197;42.732;27.192;2022-07-09T19:37:18;99126.31;;;22.45;54.33
62201;BME280;48197;42.732;27.192;2022-07-09T19:39:46;99129.69;;;22.49;54.31
62201;BME280;48197;42.732;27.192;2022-07-09T19:42:12;99138.66;;;22.53;53.81
62201;BME280;48197;42.732;27.192;2022-07-09T19:44:39;99126.88;;;22.55;53.57
62201;BME280;48197;42.732;27.192;2022-07-09T19:47:06;99127.91;;;22.52;53.92
62201;BME280;48197;42.732;27.192;2022-07-09T19:49:40;99122.97;;;22.47;53.67
62201;BME280;48197;42.732;27.192;2022-07-09T19:52:36;99135.75;;;22.42;54.19
62201;BME280;48197;42.732;27.192;2022-07-09T19:55:04;99133.94;;;22.39;53.89
62201;BME280;48197;42.732;27.192;2022-07-09T19:57:31;99142.94;;;22.43;53.53
62201;BME280;48197;42.732;27.192;2022-07-09T19:59:57;99137.56;;;22.45;53.63
62201;BME280;48197;42.732;27.192;2022-07-09T20:14:36;99143.09;;;22.34;53.67
62201;BME280;48197;42.732;27.192;2022-07-09T20:17:04;99144.66;;;22.35;53.60
62201;BME280;48197;42.732;27.192;2022-07-09T20:19:31;99134.34;;;22.26;54.00
62201;BME280;48197;42.732;27.192;2022-07-09T20:21:57;99134.63;;;22.28;54.04
62201;BME280;48197;42.732;27.192;2022-07-09T20:24:24;99135.19;;;22.38;53.78
62201;BME280;48197;42.732;27.192;2022-07-09T20:26:56;99132.16;;;22.41;53.73
62201;BME280;48197;42.732;27.192;2022-07-09T20:29:23;99127.03;;;22.40;53.45
62201;BME280;48197;42.732;27.192;2022-07-09T20:31:51;99124.00;;;22.43;53.31
62201;BME280;48197;42.732;27.192;2022-07-09T20:34:18;99121.66;;;22.42;53.67
62201;BME280;48197;42.732;27.192;2022-07-09T20:36:45;99116.50;;;22.35;53.55
62201;BME280;48197;42.732;27.192;2022-07-09T20:39:11;99122.91;;;22.35;53.40
62201;BME280;48197;42.732;27.192;2022-07-09T20:41:38;99125.72;;;22.35;53.63
62201;BME280;48197;42.732;27.192;2022-07-09T20:44:03;99120.56;;;22.28;53.81
62201;BME280;48197;42.732;27.192;2022-07-09T20:46:30;99132.53;;;22.23;53.76
62201;BME280;48197;42.732;27.192;2022-07-09T20:58:14;99146.94;;;22.05;54.83
62201;BME280;48197;42.732;27.192;2022-07-09T21:00:41;99156.22;;;22.11;54.52
62201;BME280;48197;42.732;27.192;2022-07-09T21:03:10;99153.28;;;21.99;55.60
62201;BME280;48197;42.732;27.192;2022-07-09T21:05:37;99162.72;;;21.50;57.99
62201;BME280;48197;42.732;27.192;2022-07-09T21:08:09;99156.06;;;20.41;63.99
62201;BME280;48197;42.732;27.192;2022-07-09T21:10:36;99139.56;;;19.45;70.71
62201;BME280;48197;42.732;27.192;2022-07-09T21:13:02;99137.72;;;18.69;77.39
62201;BME280;48197;42.732;27.192;2022-07-09T21:15:29;99121.34;;;17.92;83.60
62201;BME280;48197;42.732;27.192;2022-07-09T21:30:12;99106.97;;;17.01;100.00
62201;BME280;48197;42.732;27.192;2022-07-09T21:32:42;99108.66;;;16.99;100.00
62201;BME280;48197;42.732;27.192;2022-07-09T21:35:08;99112.38;;;16.96;100.00
62201;BME280;48197;42.732;27.192;2022-07-09T21:37:36;99102.31;;;17.07;100.00
62201;BME280;48197;42.732;27.192;2022-07-09T21:40:03;99100.28;;;17.35;97.39
62201;BME280;48197;42.732;27.192;2022-07-09T21:42:52;99099.81;;;17.65;94.30
62201;BME280;48197;42.732;27.192;2022-07-09T21:45:20;99109.25;;;17.86;91.07
62201;BME280;48197;42.732;27.192;2022-07-09T21:47:48;99093.34;;;18.10;88.45
62201;BME280;48197;42.732;27.192;2022-07-09T21:50:24;99087.19;;;18.40;86.29
62201;BME280;48197;42.732;27.192;2022-07-09T21:52:51;99093.16;;;18.56;85.51
62201;BME280;48197;42.732;27.192;2022-07-09T21:55:18;99102.47;;;18.63;85.03
62201;BME280;48197;42.732;27.192;2022-07-09T21:57:44;99090.91;;;18.70;84.29
62201;BME280;48197;42.732;27.192;2022-07-09T22:00:12;99094.09;;;18.87;82.87
62201;BME280;48197;42.732;27.192;2022-07-09T22:02:40;99101.41;;;19.08;81.04
62201;BME280;48197;42.732;27.192;2022-07-09T22:05:07;99101.75;;;19.25;78.63
62201;BME280;48197;42.732;27.192;2022-07-09T22:07:49;99095.03;;;19.47;76.17
62201;BME280;48197;42.732;27.192;2022-07-09T22:10:19;99097.00;;;19.70;74.67
62201;BME280;48197;42.732;27.192;2022-07-09T22:12:45;99116.25;;;19.77;75.48
62201;BME280;48197;42.732;27.192;2022-07-09T22:15:12;99114.34;;;19.45;78.10
62201;BME280;48197;42.732;27.192;2022-07-09T22:17:39;99111.81;;;18.84;80.69
62201;BME280;48197;42.732;27.192;2022-07-09T22:20:05;99111.66;;;18.21;83.83
62201;BME280;48197;42.732;27.192;2022-07-09T22:22:33;99121.38;;;17.83;87.43
62201;BME280;48197;42.732;27.192;2022-07-09T22:25:00;99125.75;;;17.47;91.24
62201;BME280;48197;42.732;27.192;2022-07-09T22:27:27;99123.84;;;17.07;95.01
62201;BME280;48197;42.732;27.192;2022-07-09T22:29:57;99120.88;;;16.83;98.34
62201;BME280;48197;42.732;27.192;2022-07-09T22:32:27;99115.06;;;16.68;100.00
62201;BME280;48197;42.732;27.192;2022-07-09T22:34:55;99124.97;;;16.60;100.00
62201;BME280;48197;42.732;27.192;2022-07-09T22:37:33;99121.22;;;16.53;100.00
62201;BME280;48197;42.732;27.192;2022-07-09T22:40:02;99118.41;;;16.44;100.00
62201;BME280;48197;42.732;27.192;2022-07-09T22:42:32;99114.97;;;16.40;100.00
62201;BME280;48197;42.732;27.192;2022-07-09T22:45:17;99114.53;;;16.42;100.00
62201;BME280;48197;42.732;27.192;2022-07-09T22:47:44;99112.06;;;16.44;100.00
62201;BME280;48197;42.732;27.192;2022-07-09T22:50:15;99104.78;;;16.46;100.00
62201;BME280;48197;42.732;27.192;2022-07-09T22:52:42;99097.69;;;16.54;100.00
62201;BME280;48197;42.732;27.192;2022-07-09T22:55:10;99093.88;;;16.80;100.00
62201;BME280;48197;42.732;27.192;2022-07-09T22:57:37;99084.31;;;17.08;98.41
62201;BME280;48197;42.732;27.192;2022-07-09T23:00:04;99086.34;;;17.35;95.13
62201;BME280;48197;42.732;27.192;2022-07-09T23:02:32;99081.63;;;17.60;92.91
62201;BME280;48197;42.732;27.192;2022-07-09T23:04:58;99085.97;;;17.80;90.47
62201;BME280;48197;42.732;27.192;2022-07-09T23:07:24;99080.34;;;17.98;87.80
62201;BME280;48197;42.732;27.192;2022-07-09T23:10:09;99078.25;;;18.17;85.94
62201;BME280;48197;42.732;27.192;2022-07-09T23:12:36;99075.84;;;18.34;84.64
62201;BME280;48197;42.732;27.192;2022-07-09T23:15:03;99087.91;;;18.49;83.65
62201;BME280;48197;42.732;27.192;2022-07-09T23:17:33;99083.81;;;18.60;83.19
62201;BME280;48197;42.732;27.192;2022-07-09T23:19:59;99081.00;;;18.60;83.04
62201;BME280;48197;42.732;27.192;2022-07-09T23:34:38;99066.50;;;18.94;79.50
62201;BME280;48197;42.732;27.192;2022-07-09T23:37:04;99069.88;;;18.98;79.16
62201;BME280;48197;42.732;27.192;2022-07-09T23:39:31;99069.25;;;19.04;77.80
62201;BME280;48197;42.732;27.192;2022-07-09T23:41:57;99067.72;;;19.17;77.19
62201;BME280;48197;42.732;27.192;2022-07-09T23:44:27;99056.34;;;19.21;76.70
62201;BME280;48197;42.732;27.192;2022-07-09T23:46:54;99056.34;;;19.21;77.34
62201;BME280;48197;42.732;27.192;2022-07-09T23:49:20;99054.31;;;19.22;75.77
